createdAt,value
2018-06-04T00:00:31.358Z,53.26
2018-06-04T00:01:31.779Z,53.26
2018-06-04T00:02:32.252Z,53.26
2018-06-04T00:03:32.726Z,53.28
2018-06-04T00:04:33.196Z,53.31
2018-06-04T00:05:33.664Z,53.31
2018-06-04T00:06:34.137Z,53.31
2018-06-04T00:07:34.609Z,53.34
2018-06-04T00:08:35.081Z,53.43
2018-06-04T00:09:35.550Z,53.27
2018-06-04T00:10:36.023Z,53.42
2018-06-04T00:11:36.494Z,53.27
2018-06-04T00:12:36.965Z,53.36
2018-06-04T00:13:37.435Z,53.30
2018-06-04T00:14:37.908Z,53.42
2018-06-04T00:15:38.380Z,53.36
2018-06-04T00:16:38.851Z,53.35
2018-06-04T00:17:39.321Z,53.41
2018-06-04T00:18:39.795Z,53.53
2018-06-04T00:19:40.264Z,53.50
2018-06-04T00:20:40.787Z,53.59
2018-06-04T00:21:41.211Z,53.59
2018-06-04T00:22:41.681Z,53.65
2018-06-04T00:23:42.155Z,53.64
2018-06-04T00:24:42.628Z,53.58
2018-06-04T00:25:43.099Z,53.58
2018-06-04T00:26:43.570Z,53.73
2018-06-04T00:27:44.045Z,53.67
2018-06-04T00:28:44.516Z,53.69
2018-06-04T00:29:44.993Z,53.63
2018-06-04T00:30:45.517Z,53.69
2018-06-04T00:31:45.937Z,53.78
2018-06-04T00:32:46.410Z,53.81
2018-06-04T00:33:46.883Z,53.96
2018-06-04T00:34:47.358Z,53.81
2018-06-04T00:35:47.833Z,53.89
2018-06-04T00:36:48.306Z,53.92
2018-06-04T00:37:48.781Z,53.65
2018-06-04T00:38:49.257Z,53.89
2018-06-04T00:39:49.731Z,53.98
2018-06-04T00:40:50.209Z,53.98
2018-06-04T00:41:50.688Z,54.04
2018-06-04T00:42:51.157Z,54.04
2018-06-04T00:43:51.632Z,54.04
2018-06-04T00:44:52.110Z,53.97
2018-06-04T00:45:52.632Z,54.00
2018-06-04T00:46:53.056Z,54.06
2018-06-04T00:47:53.534Z,53.94
2018-06-04T00:48:54.007Z,54.09
2018-06-04T00:49:54.481Z,53.82
2018-06-04T00:50:54.958Z,54.00
2018-06-04T00:51:55.431Z,53.99
2018-06-04T00:52:55.907Z,53.99
2018-06-04T00:53:56.381Z,54.02
2018-06-04T00:54:56.857Z,54.02
2018-06-04T00:55:57.380Z,54.14
2018-06-04T00:56:57.805Z,54.26
2018-06-04T00:57:58.277Z,54.32
2018-06-04T00:58:58.754Z,54.38
2018-06-04T00:59:59.226Z,54.32
2018-06-04T01:00:59.702Z,54.37
2018-06-04T01:02:00.174Z,54.25
2018-06-04T01:03:00.647Z,54.28
2018-06-04T01:04:01.122Z,54.04
2018-06-04T01:05:01.616Z,54.13
2018-06-04T01:06:02.119Z,54.10
2018-06-04T01:07:02.538Z,54.00
2018-06-04T01:08:03.012Z,54.12
2018-06-04T01:09:03.485Z,54.09
2018-06-04T01:10:03.957Z,54.03
2018-06-04T01:11:04.480Z,54.27
2018-06-04T01:12:04.903Z,54.33
2018-06-04T01:13:05.392Z,54.50
2018-06-04T01:14:05.843Z,54.60
2018-06-04T01:15:06.318Z,54.59
2018-06-04T01:16:06.794Z,54.68
2018-06-04T01:17:07.265Z,54.95
2018-06-04T01:18:07.732Z,55.04
2018-06-04T01:19:08.202Z,55.07
2018-06-04T01:20:08.672Z,55.21
2018-06-04T01:21:09.144Z,55.30
2018-06-04T01:22:09.615Z,55.27
2018-06-04T01:23:10.086Z,55.12
2018-06-04T01:24:10.558Z,55.00
2018-06-04T01:25:11.029Z,54.94
2018-06-04T01:26:11.501Z,54.79
2018-06-04T01:27:11.972Z,54.67
2018-06-04T01:28:12.445Z,54.79
2018-06-04T01:29:12.914Z,54.82
2018-06-04T01:30:13.389Z,54.76
2018-06-04T01:31:13.909Z,54.76
2018-06-04T01:32:14.329Z,54.57
2018-06-04T01:34:15.275Z,54.69
2018-06-04T01:35:15.748Z,54.72
2018-06-04T01:36:16.219Z,54.78
2018-06-04T01:37:16.698Z,55.02
2018-06-04T01:38:17.164Z,55.11
2018-06-04T01:39:17.639Z,55.19
2018-06-04T01:40:18.111Z,55.28
2018-06-04T01:41:18.585Z,55.40
2018-06-04T01:42:19.057Z,55.40
2018-06-04T01:43:19.535Z,55.49
2018-06-04T01:44:20.004Z,55.28
2018-06-04T01:45:20.480Z,55.31
2018-06-04T01:46:20.952Z,55.27
2018-06-04T01:47:21.427Z,55.19
2018-06-04T01:48:21.901Z,55.06
2018-06-04T01:49:22.378Z,55.21
2018-06-04T01:50:22.851Z,55.18
2018-06-04T01:51:23.326Z,55.03
2018-06-04T01:52:23.801Z,55.09
2018-06-04T01:53:24.278Z,55.21
2018-06-04T01:54:24.752Z,55.17
2018-06-04T01:55:25.231Z,55.26
2018-06-04T01:56:25.754Z,55.23
2018-06-04T01:57:26.183Z,55.14
2018-06-04T01:58:26.651Z,55.26
2018-06-04T01:59:27.126Z,55.05
2018-06-04T02:00:27.610Z,54.99
2018-06-04T02:01:28.076Z,54.95
2018-06-04T02:02:28.555Z,54.83
2018-06-04T02:03:29.025Z,54.83
2018-06-04T02:04:29.502Z,54.95
2018-06-04T02:05:29.975Z,55.10
2018-06-04T02:06:30.447Z,55.45
2018-06-04T02:07:30.927Z,55.60
2018-06-04T02:08:31.397Z,55.83
2018-06-04T02:09:31.871Z,55.74
2018-06-04T02:10:32.346Z,55.89
2018-06-04T02:11:32.818Z,55.89
2018-06-04T02:12:33.292Z,55.98
2018-06-04T02:13:33.765Z,56.01
2018-06-04T02:14:34.237Z,56.15
2018-06-04T02:15:34.711Z,56.12
2018-06-04T02:16:35.188Z,56.30
2018-06-04T02:17:35.656Z,56.36
2018-06-04T02:18:36.130Z,56.53
2018-06-04T02:19:36.608Z,56.56
2018-06-04T02:20:37.072Z,56.56
2018-06-04T02:21:37.546Z,56.73
2018-06-04T02:22:38.015Z,56.61
2018-06-04T02:23:38.487Z,56.79
2018-06-04T02:24:38.961Z,56.85
2018-06-04T02:25:39.432Z,56.90
2018-06-04T02:26:39.903Z,56.87
2018-06-04T02:27:40.378Z,57.05
2018-06-04T02:28:40.845Z,57.05
2018-06-04T02:29:41.318Z,57.05
2018-06-04T02:30:41.788Z,57.08
2018-06-04T02:31:42.268Z,57.04
2018-06-04T02:32:42.730Z,56.98
2018-06-04T02:33:43.207Z,56.92
2018-06-04T02:34:43.672Z,56.83
2018-06-04T02:35:44.145Z,56.89
2018-06-04T02:36:44.615Z,56.92
2018-06-04T02:37:45.088Z,57.01
2018-06-04T02:38:45.557Z,57.03
2018-06-04T02:39:46.032Z,56.92
2018-06-04T02:40:46.509Z,56.94
2018-06-04T02:41:47.025Z,56.97
2018-06-04T02:42:47.448Z,56.82
2018-06-04T02:43:47.916Z,56.85
2018-06-04T02:44:48.391Z,56.91
2018-06-04T02:45:48.862Z,56.91
2018-06-04T02:46:49.335Z,57.00
2018-06-04T02:47:49.806Z,56.96
2018-06-04T02:48:50.281Z,56.90
2018-06-04T02:49:50.814Z,56.93
2018-06-04T02:50:51.225Z,56.95
2018-06-04T02:51:51.699Z,57.04
2018-06-04T02:52:52.172Z,56.98
2018-06-04T02:53:52.655Z,57.07
2018-06-04T02:54:53.120Z,57.04
2018-06-04T02:55:53.593Z,57.01
2018-06-04T02:56:54.117Z,57.01
2018-06-04T02:57:54.546Z,56.89
2018-06-04T02:58:55.018Z,56.89
2018-06-04T02:59:55.489Z,56.95
2018-06-04T03:00:55.965Z,56.88
2018-06-04T03:01:56.441Z,56.88
2018-06-04T03:02:56.918Z,56.77
2018-06-04T03:03:57.393Z,56.76
2018-06-04T03:04:57.867Z,56.88
2018-06-04T03:05:58.342Z,56.94
2018-06-04T03:06:58.814Z,57.03
2018-06-04T03:07:59.290Z,57.05
2018-06-04T03:08:59.765Z,56.88
2018-06-04T03:10:00.239Z,56.70
2018-06-04T03:11:00.714Z,56.81
2018-06-04T03:12:01.249Z,56.85
2018-06-04T03:13:01.664Z,56.87
2018-06-04T03:14:02.140Z,57.02
2018-06-04T03:15:02.612Z,57.08
2018-06-04T03:16:03.087Z,56.93
2018-06-04T03:17:03.561Z,56.92
2018-06-04T03:18:04.035Z,57.04
2018-06-04T03:19:04.508Z,57.07
2018-06-04T03:20:04.983Z,57.04
2018-06-04T03:21:05.455Z,57.21
2018-06-04T03:22:05.931Z,57.15
2018-06-04T03:23:06.402Z,57.18
2018-06-04T03:24:06.875Z,57.21
2018-06-04T03:25:07.348Z,57.15
2018-06-04T03:26:07.821Z,57.29
2018-06-04T03:27:08.294Z,57.15
2018-06-04T03:28:08.765Z,57.18
2018-06-04T03:29:09.239Z,57.26
2018-06-04T03:30:09.719Z,57.35
2018-06-04T03:31:10.183Z,57.38
2018-06-04T03:32:10.654Z,57.37
2018-06-04T03:33:11.127Z,57.40
2018-06-04T03:34:11.597Z,57.38
2018-06-04T03:35:12.069Z,57.43
2018-06-04T03:36:12.543Z,57.52
2018-06-04T03:37:13.164Z,57.78
2018-06-04T03:38:13.484Z,57.69
2018-06-04T03:39:13.953Z,57.60
2018-06-04T03:40:14.426Z,57.57
2018-06-04T03:41:14.897Z,57.81
2018-06-04T03:42:15.366Z,57.66
2018-06-04T03:43:15.837Z,57.65
2018-06-04T03:44:16.309Z,57.77
2018-06-04T03:45:16.780Z,57.77
2018-06-04T03:46:17.251Z,57.83
2018-06-04T03:47:17.723Z,57.80
2018-06-04T03:48:18.194Z,57.74
2018-06-04T03:49:18.667Z,57.89
2018-06-04T03:50:19.138Z,57.83
2018-06-04T03:51:19.616Z,57.77
2018-06-04T03:52:20.081Z,57.83
2018-06-04T03:53:20.552Z,57.86
2018-06-04T03:54:21.026Z,57.86
2018-06-04T03:55:21.498Z,57.92
2018-06-04T03:56:21.973Z,57.77
2018-06-04T03:57:22.446Z,57.81
2018-06-04T03:58:22.917Z,57.78
2018-06-04T03:59:23.389Z,57.90
2018-06-04T04:00:23.861Z,57.84
2018-06-04T04:01:24.337Z,57.84
2018-06-04T04:02:24.811Z,57.82
2018-06-04T04:03:25.284Z,57.84
2018-06-04T04:04:25.758Z,57.93
2018-06-04T04:05:26.232Z,57.88
2018-06-04T04:06:26.708Z,57.85
2018-06-04T04:07:27.180Z,57.73
2018-06-04T04:08:27.655Z,57.67
2018-06-04T04:09:28.129Z,57.74
2018-06-04T04:10:28.604Z,57.33
2018-06-04T04:11:29.080Z,57.30
2018-06-04T04:12:30.009Z,57.45
2018-06-04T04:13:30.030Z,57.36
2018-06-04T04:14:30.508Z,57.25
2018-06-04T04:15:30.980Z,57.23
2018-06-04T04:16:31.456Z,57.20
2018-06-04T04:17:31.931Z,57.14
2018-06-04T04:18:32.406Z,57.06
2018-06-04T04:19:32.884Z,57.06
2018-06-04T04:20:33.358Z,57.06
2018-06-04T04:21:33.836Z,57.04
2018-06-04T04:22:34.307Z,56.98
2018-06-04T04:23:34.783Z,56.96
2018-06-04T04:24:35.258Z,56.96
2018-06-04T04:25:35.733Z,56.91
2018-06-04T04:26:36.207Z,56.94
2018-06-04T04:27:36.682Z,56.89
2018-06-04T04:28:37.160Z,56.86
2018-06-04T04:29:37.629Z,56.75
2018-06-04T04:30:38.105Z,56.63
2018-06-04T04:31:38.577Z,56.64
2018-06-04T04:32:39.104Z,56.58
2018-06-04T04:33:39.526Z,56.51
2018-06-04T04:34:40.000Z,56.48
2018-06-04T04:35:40.475Z,56.39
2018-06-04T04:36:40.948Z,56.34
2018-06-04T04:37:41.448Z,56.41
2018-06-04T04:38:41.895Z,56.35
2018-06-04T04:39:42.364Z,56.26
2018-06-04T04:40:42.838Z,56.24
2018-06-04T04:41:43.311Z,56.19
2018-06-04T04:42:43.784Z,56.14
2018-06-04T04:43:44.256Z,56.17
2018-06-04T04:44:44.729Z,56.15
2018-06-04T04:45:45.202Z,56.10
2018-06-04T04:46:45.678Z,56.01
2018-06-04T04:47:46.145Z,55.96
2018-06-04T04:48:46.618Z,55.91
2018-06-04T04:49:47.090Z,55.92
2018-06-04T04:50:47.563Z,55.86
2018-06-04T04:51:48.032Z,55.78
2018-06-04T04:52:48.505Z,55.76
2018-06-04T04:53:48.979Z,55.70
2018-06-04T04:54:49.450Z,55.68
2018-06-04T04:55:49.919Z,55.63
2018-06-04T04:56:50.392Z,55.58
2018-06-04T04:57:50.866Z,55.55
2018-06-04T04:58:51.336Z,55.47
2018-06-04T04:59:51.807Z,55.45
2018-06-04T05:00:52.280Z,55.43
2018-06-04T05:01:52.756Z,55.37
2018-06-04T05:02:53.227Z,55.32
2018-06-04T05:03:53.700Z,55.24
2018-06-04T05:04:54.175Z,55.16
2018-06-04T05:05:54.646Z,55.13
2018-06-04T05:06:55.122Z,55.05
2018-06-04T05:07:55.642Z,55.00
2018-06-04T05:08:56.066Z,54.97
2018-06-04T05:09:56.541Z,54.92
2018-06-04T05:10:57.013Z,54.84
2018-06-04T05:11:57.490Z,54.85
2018-06-04T05:12:57.961Z,54.80
2018-06-04T05:13:58.439Z,54.74
2018-06-04T05:14:58.912Z,54.69
2018-06-04T05:15:59.386Z,54.64
2018-06-04T05:16:59.863Z,54.62
2018-06-04T05:18:00.341Z,54.56
2018-06-04T05:19:00.816Z,54.57
2018-06-04T05:20:01.292Z,54.52
2018-06-04T05:21:01.769Z,54.50
2018-06-04T05:22:02.243Z,54.47
2018-06-04T05:23:02.718Z,54.48
2018-06-04T05:24:03.196Z,54.43
2018-06-04T05:25:03.670Z,54.44
2018-06-04T05:26:04.149Z,54.35
2018-06-04T05:27:04.625Z,54.33
2018-06-04T05:28:05.150Z,54.37
2018-06-04T05:29:05.577Z,54.35
2018-06-04T05:30:06.055Z,54.33
2018-06-04T05:31:06.528Z,54.27
2018-06-04T05:32:07.007Z,54.25
2018-06-04T05:33:07.479Z,54.23
2018-06-04T05:34:07.957Z,54.20
2018-06-04T05:35:08.432Z,54.15
2018-06-04T05:36:08.910Z,54.13
2018-06-04T05:37:09.437Z,54.08
2018-06-04T05:38:09.910Z,54.06
2018-06-04T05:39:10.337Z,54.00
2018-06-04T05:40:10.812Z,54.01
2018-06-04T05:41:11.287Z,53.96
2018-06-04T05:42:11.760Z,53.91
2018-06-04T05:43:12.237Z,53.85
2018-06-04T05:44:12.711Z,53.83
2018-06-04T05:45:13.191Z,53.81
2018-06-04T05:46:13.662Z,53.79
2018-06-04T05:47:14.137Z,53.76
2018-06-04T05:48:14.613Z,53.71
2018-06-04T05:49:15.085Z,53.66
2018-06-04T05:50:15.560Z,53.64
2018-06-04T05:51:16.035Z,53.62
2018-06-04T05:52:16.533Z,53.59
2018-06-04T05:53:17.035Z,53.57
2018-06-04T05:54:17.457Z,53.52
2018-06-04T05:55:17.937Z,53.47
2018-06-04T05:56:18.444Z,53.42
2018-06-04T05:57:18.878Z,53.36
2018-06-04T05:58:19.354Z,53.37
2018-06-04T05:59:19.829Z,53.32
2018-06-04T06:00:20.301Z,53.36
2018-06-04T06:01:20.774Z,53.31
2018-06-04T06:02:21.248Z,53.29
2018-06-04T06:03:21.724Z,53.23
2018-06-04T06:04:22.196Z,53.18
2018-06-04T06:05:22.670Z,53.19
2018-06-04T06:06:23.148Z,53.20
2018-06-04T06:07:23.617Z,53.14
2018-06-04T06:08:24.092Z,53.15
2018-06-04T06:09:24.563Z,53.10
2018-06-04T06:10:25.035Z,53.04
2018-06-04T06:11:25.509Z,53.02
2018-06-04T06:12:25.982Z,52.97
2018-06-04T06:13:26.509Z,52.88
2018-06-04T06:14:26.944Z,52.86
2018-06-04T06:15:27.400Z,52.84
2018-06-04T06:16:27.873Z,52.79
2018-06-04T06:17:28.440Z,52.83
2018-06-04T06:18:28.818Z,52.80
2018-06-04T06:19:29.291Z,52.81
2018-06-04T06:20:29.764Z,52.79
2018-06-04T06:21:30.237Z,52.70
2018-06-04T06:22:30.711Z,52.68
2018-06-04T06:23:31.233Z,52.63
2018-06-04T06:24:31.657Z,52.61
2018-06-04T06:25:32.129Z,52.58
2018-06-04T06:26:32.604Z,52.53
2018-06-04T06:27:33.075Z,52.48
2018-06-04T06:28:33.597Z,52.39
2018-06-04T06:29:34.021Z,52.31
2018-06-04T06:30:34.492Z,52.22
2018-06-04T06:31:34.977Z,52.14
2018-06-04T06:32:35.436Z,52.02
2018-06-04T06:33:35.910Z,51.94
2018-06-04T06:34:36.381Z,51.82
2018-06-04T06:35:37.059Z,51.71
2018-06-04T06:36:37.327Z,51.56
2018-06-04T06:37:37.828Z,51.47
2018-06-04T06:38:38.272Z,51.39
2018-06-04T06:39:38.749Z,51.30
2018-06-04T06:40:39.218Z,51.25
2018-06-04T06:41:39.690Z,51.19
2018-06-04T06:42:40.163Z,51.17
2018-06-04T06:43:40.638Z,51.14
2018-06-04T06:44:41.109Z,51.12
2018-06-04T06:45:41.581Z,51.06
2018-06-04T06:46:42.061Z,51.04
2018-06-04T06:47:42.531Z,50.96
2018-06-04T06:48:43.002Z,50.96
2018-06-04T06:49:43.477Z,50.94
2018-06-04T06:50:43.949Z,50.88
2018-06-04T06:51:44.424Z,50.89
2018-06-04T06:52:44.901Z,50.84
2018-06-04T06:53:45.376Z,50.84
2018-06-04T06:54:45.848Z,50.82
2018-06-04T06:55:46.324Z,50.79
2018-06-04T06:56:46.802Z,50.74
2018-06-04T06:57:47.275Z,50.68
2018-06-04T06:58:47.802Z,50.60
2018-06-04T06:59:48.227Z,50.51
2018-06-04T07:00:48.707Z,50.46
2018-06-04T07:01:49.179Z,50.40
2018-06-04T07:02:49.657Z,50.28
2018-06-04T07:03:50.134Z,50.13
2018-06-04T07:04:50.611Z,50.08
2018-06-04T07:05:51.089Z,49.99
2018-06-04T07:06:51.566Z,49.93
2018-06-04T07:07:52.044Z,49.88
2018-06-04T07:08:52.522Z,49.85
2018-06-04T07:10:53.475Z,49.80
2018-06-04T07:11:53.953Z,49.78
2018-06-04T07:12:54.429Z,49.69
2018-06-04T07:13:54.958Z,49.67
2018-06-04T07:14:55.385Z,49.55
2018-06-04T07:15:55.863Z,49.49
2018-06-04T07:16:56.342Z,49.46
2018-06-04T07:17:56.817Z,49.44
2018-06-04T07:18:57.344Z,49.51
2018-06-04T07:19:57.770Z,49.45
2018-06-04T07:20:58.251Z,49.52
2018-06-04T07:21:58.727Z,49.46
2018-06-04T07:22:59.203Z,49.50
2018-06-04T07:23:59.680Z,49.45
2018-06-04T07:25:00.360Z,49.42
2018-06-04T07:26:00.637Z,49.43
2018-06-04T07:27:01.120Z,49.40
2018-06-04T07:28:01.589Z,49.41
2018-06-04T07:29:02.066Z,49.45
2018-06-04T07:30:02.543Z,49.39
2018-06-04T07:31:03.021Z,49.30
2018-06-04T07:32:03.500Z,49.28
2018-06-04T07:33:03.972Z,49.22
2018-06-04T07:34:04.451Z,49.22
2018-06-04T07:35:04.926Z,49.23
2018-06-04T07:36:05.434Z,49.18
2018-06-04T07:37:05.879Z,49.12
2018-06-04T07:38:06.355Z,49.06
2018-06-04T07:39:06.882Z,48.94
2018-06-04T07:40:07.308Z,48.88
2018-06-04T07:41:07.828Z,48.82
2018-06-04T07:42:08.261Z,48.70
2018-06-04T07:43:08.735Z,48.64
2018-06-04T07:44:09.264Z,48.52
2018-06-04T07:45:09.689Z,48.37
2018-06-04T07:46:10.165Z,48.31
2018-06-04T07:47:10.643Z,48.22
2018-06-04T07:48:11.121Z,48.04
2018-06-04T07:49:11.596Z,47.79
2018-06-04T07:50:12.071Z,47.70
2018-06-04T07:51:12.544Z,47.58
2018-06-04T07:52:13.021Z,47.42
2018-06-04T07:53:13.498Z,47.17
2018-06-04T07:54:13.977Z,47.17
2018-06-04T07:55:14.449Z,47.05
2018-06-04T07:56:14.923Z,46.99
2018-06-04T07:57:15.437Z,46.83
2018-06-04T07:58:15.873Z,46.74
2018-06-04T07:59:16.408Z,46.62
2018-06-04T08:00:16.831Z,46.30
2018-06-04T08:01:17.302Z,46.30
2018-06-04T08:02:17.778Z,46.24
2018-06-04T08:03:18.252Z,46.15
2018-06-04T08:04:18.778Z,46.12
2018-06-04T08:05:19.204Z,46.00
2018-06-04T08:06:19.746Z,45.88
2018-06-04T08:07:20.155Z,45.72
2018-06-04T08:08:20.631Z,45.69
2018-06-04T08:09:21.104Z,45.43
2018-06-04T08:10:21.610Z,45.44
2018-06-04T08:11:22.058Z,45.38
2018-06-04T08:12:22.533Z,45.19
2018-06-04T08:13:23.008Z,45.13
2018-06-04T08:14:23.534Z,45.07
2018-06-04T08:15:23.959Z,44.75
2018-06-04T08:16:24.434Z,44.75
2018-06-04T08:17:24.908Z,44.63
2018-06-04T08:18:25.386Z,44.63
2018-06-04T08:19:25.865Z,44.44
2018-06-04T08:20:26.335Z,44.31
2018-06-04T08:21:26.833Z,44.18
2018-06-04T08:22:27.289Z,44.12
2018-06-04T08:23:27.762Z,44.06
2018-06-04T08:24:28.236Z,43.87
2018-06-04T08:25:28.712Z,43.75
2018-06-04T08:26:29.188Z,43.69
2018-06-04T08:27:29.662Z,43.56
2018-06-04T08:28:30.141Z,43.57
2018-06-04T08:29:30.765Z,43.44
2018-06-04T08:30:31.088Z,43.44
2018-06-04T08:31:31.566Z,43.45
2018-06-04T08:32:32.041Z,43.32
2018-06-04T08:33:32.516Z,43.23
2018-06-04T08:34:32.994Z,43.23
2018-06-04T08:35:33.465Z,43.21
2018-06-04T08:36:33.942Z,42.98
2018-06-04T08:37:34.415Z,43.02
2018-06-04T08:38:34.895Z,43.03
2018-06-04T08:39:35.368Z,42.97
2018-06-04T08:40:35.844Z,43.04
2018-06-04T08:41:36.318Z,42.91
2018-06-04T08:42:36.796Z,42.99
2018-06-04T08:43:37.269Z,42.89
2018-06-04T08:44:37.799Z,42.83
2018-06-04T08:45:38.254Z,42.91
2018-06-04T08:46:38.697Z,42.81
2018-06-04T08:47:39.172Z,42.82
2018-06-04T08:48:39.647Z,42.83
2018-06-04T08:49:40.123Z,42.77
2018-06-04T08:50:40.603Z,42.91
2018-06-04T08:51:41.073Z,42.71
2018-06-04T08:52:41.550Z,42.69
2018-06-04T08:53:42.027Z,42.86
2018-06-04T08:54:42.501Z,42.71
2018-06-04T08:55:42.977Z,42.38
2018-06-04T08:56:43.452Z,42.49
2018-06-04T08:57:43.926Z,42.53
2018-06-04T08:58:44.402Z,42.11
2018-06-04T08:59:44.879Z,41.98
2018-06-04T09:00:45.355Z,41.92
2018-06-04T09:01:45.831Z,41.93
2018-06-04T09:02:46.307Z,41.71
2018-06-04T09:03:46.787Z,41.48
2018-06-04T09:04:47.466Z,41.42
2018-06-04T09:05:47.733Z,41.43
2018-06-04T09:06:48.210Z,41.23
2018-06-04T09:07:48.686Z,41.17
2018-06-04T09:08:49.162Z,41.08
2018-06-04T09:09:49.653Z,40.91
2018-06-04T09:10:50.113Z,40.85
2018-06-04T09:11:50.589Z,40.79
2018-06-04T09:12:51.114Z,40.80
2018-06-04T09:13:51.541Z,40.33
2018-06-04T09:14:52.170Z,40.30
2018-06-04T09:15:52.497Z,40.54
2018-06-04T09:16:52.974Z,40.37
2018-06-04T09:17:53.445Z,39.73
2018-06-04T09:18:53.923Z,40.11
2018-06-04T09:19:54.551Z,40.11
2018-06-04T09:20:54.882Z,39.64
2018-06-04T09:21:55.351Z,39.44
2018-06-04T09:22:55.827Z,39.00
2018-06-04T09:23:56.304Z,39.24
2018-06-04T09:24:56.781Z,39.01
2018-06-04T09:25:57.258Z,39.21
2018-06-04T09:26:57.733Z,38.91
2018-06-04T09:28:58.687Z,38.40
2018-06-04T09:29:59.162Z,38.67
2018-06-04T09:30:59.640Z,38.02
2018-06-04T09:32:00.121Z,38.33
2018-06-04T09:33:00.592Z,38.39
2018-06-04T09:34:01.070Z,38.53
2018-06-04T09:35:01.596Z,38.70
2018-06-04T09:36:02.023Z,38.66
2018-06-04T09:37:02.501Z,39.04
2018-06-04T09:38:02.976Z,38.86
2018-06-04T09:39:03.454Z,38.86
2018-06-04T09:40:03.934Z,38.28
2018-06-04T09:41:04.408Z,38.24
2018-06-04T09:42:04.882Z,38.65
2018-06-04T09:43:05.359Z,38.78
2018-06-04T09:44:05.837Z,39.12
2018-06-04T09:45:06.364Z,38.91
2018-06-04T09:46:06.791Z,39.32
2018-06-04T09:47:07.268Z,38.97
2018-06-04T09:48:07.746Z,38.90
2018-06-04T09:49:08.223Z,39.10
2018-06-04T09:50:08.698Z,39.30
2018-06-04T09:51:09.176Z,38.96
2018-06-04T09:52:09.656Z,38.68
2018-06-04T09:53:10.131Z,39.36
2018-06-04T09:54:10.674Z,39.25
2018-06-04T09:55:11.133Z,39.66
2018-06-04T09:56:11.559Z,39.42
2018-06-04T09:57:12.039Z,39.21
2018-06-04T09:58:12.515Z,39.82
2018-06-04T09:59:12.994Z,39.54
2018-06-04T10:00:13.521Z,39.54
2018-06-04T10:01:13.946Z,39.40
2018-06-04T10:02:14.431Z,39.57
2018-06-04T10:03:14.902Z,39.90
2018-06-04T10:04:15.418Z,39.32
2018-06-04T10:05:15.854Z,39.93
2018-06-04T10:06:16.332Z,40.33
2018-06-04T10:07:16.809Z,40.13
2018-06-04T10:08:17.286Z,39.85
2018-06-04T10:09:17.764Z,40.45
2018-06-04T10:10:18.390Z,40.45
2018-06-04T10:11:18.716Z,40.58
2018-06-04T10:12:19.194Z,40.31
2018-06-04T10:13:19.671Z,39.70
2018-06-04T10:14:20.148Z,40.54
2018-06-04T10:15:20.625Z,40.30
2018-06-04T10:16:21.102Z,40.84
2018-06-04T10:17:21.580Z,41.04
2018-06-04T10:18:22.057Z,40.90
2018-06-04T10:19:22.536Z,41.10
2018-06-04T10:20:23.062Z,41.13
2018-06-04T10:21:23.495Z,40.29
2018-06-04T10:22:23.965Z,40.49
2018-06-04T10:23:24.441Z,40.19
2018-06-04T10:24:24.922Z,41.20
2018-06-04T10:25:25.451Z,41.36
2018-06-04T10:26:25.873Z,41.43
2018-06-04T10:27:26.352Z,40.55
2018-06-04T10:28:26.832Z,39.91
2018-06-04T10:29:27.307Z,40.14
2018-06-04T10:30:27.783Z,40.31
2018-06-04T10:31:28.259Z,39.26
2018-06-04T10:32:28.736Z,39.60
2018-06-04T10:33:29.238Z,40.61
2018-06-04T10:34:29.692Z,39.53
2018-06-04T10:35:30.173Z,39.25
2018-06-04T10:36:30.647Z,39.66
2018-06-04T10:37:31.123Z,40.13
2018-06-04T10:38:31.600Z,40.46
2018-06-04T10:39:32.079Z,40.86
2018-06-04T10:40:32.600Z,40.49
2018-06-04T10:41:33.033Z,40.59
2018-06-04T10:42:33.508Z,40.76
2018-06-04T10:43:33.987Z,40.59
2018-06-04T10:44:34.464Z,39.91
2018-06-04T10:45:34.941Z,39.71
2018-06-04T10:46:35.496Z,39.78
2018-06-04T10:47:35.895Z,39.91
2018-06-04T10:48:36.372Z,39.87
2018-06-04T10:49:37.058Z,39.87
2018-06-04T10:50:37.376Z,39.74
2018-06-04T10:51:37.804Z,39.97
2018-06-04T10:52:38.281Z,40.17
2018-06-04T10:54:39.236Z,39.90
2018-06-04T10:55:39.866Z,39.70
2018-06-04T10:56:40.191Z,40.23
2018-06-04T10:57:40.669Z,40.23
2018-06-04T10:58:41.147Z,40.30
2018-06-04T10:59:41.627Z,40.23
2018-06-04T11:00:42.101Z,40.47
2018-06-04T11:01:42.578Z,40.87
2018-06-04T11:02:43.053Z,41.23
2018-06-04T11:03:43.532Z,41.24
2018-06-04T11:04:44.010Z,41.30
2018-06-04T11:05:44.691Z,41.50
2018-06-04T11:06:44.966Z,41.03
2018-06-04T11:07:45.440Z,40.96
2018-06-04T11:08:45.919Z,40.86
2018-06-04T11:09:46.395Z,40.99
2018-06-04T11:10:46.926Z,40.92
2018-06-04T11:11:47.353Z,41.09
2018-06-04T11:12:47.838Z,40.95
2018-06-04T11:13:48.304Z,41.06
2018-06-04T11:14:48.985Z,41.19
2018-06-04T11:15:49.262Z,41.15
2018-06-04T11:16:49.744Z,41.32
2018-06-04T11:17:50.215Z,41.55
2018-06-04T11:18:50.702Z,41.89
2018-06-04T11:19:51.170Z,41.79
2018-06-04T11:20:51.649Z,41.82
2018-06-04T11:21:52.128Z,41.55
2018-06-04T11:22:52.803Z,41.28
2018-06-04T11:23:53.076Z,41.21
2018-06-04T11:24:53.556Z,41.41
2018-06-04T11:25:54.049Z,41.41
2018-06-04T11:26:54.511Z,41.21
2018-06-04T11:27:54.990Z,41.28
2018-06-04T11:28:55.465Z,41.28
2018-06-04T11:29:55.942Z,41.24
2018-06-04T11:30:56.420Z,41.28
2018-06-04T11:31:56.897Z,41.31
2018-06-04T11:32:57.374Z,41.21
2018-06-04T11:33:57.850Z,40.94
2018-06-04T11:35:58.857Z,41.07
2018-06-04T11:36:59.284Z,40.94
2018-06-04T11:37:59.761Z,41.14
2018-06-04T11:39:00.236Z,40.94
2018-06-04T11:40:00.715Z,41.01
2018-06-04T11:41:01.199Z,40.84
2018-06-04T11:42:01.675Z,41.21
2018-06-04T11:43:02.147Z,41.28
2018-06-04T11:44:02.625Z,41.54
2018-06-04T11:45:03.102Z,41.14
2018-06-04T11:46:03.582Z,40.71
2018-06-04T11:47:04.059Z,40.84
2018-06-04T11:48:04.543Z,41.11
2018-06-04T11:49:05.013Z,40.94
2018-06-04T11:50:05.491Z,41.00
2018-06-04T11:51:05.992Z,40.74
2018-06-04T11:52:06.447Z,40.74
2018-06-04T11:53:06.923Z,41.41
2018-06-04T11:54:07.401Z,41.38
2018-06-04T11:55:07.879Z,41.21
2018-06-04T11:56:08.355Z,41.54
2018-06-04T11:57:08.834Z,41.58
2018-06-04T11:58:09.310Z,41.44
2018-06-04T11:59:09.785Z,41.38
2018-06-04T12:00:10.264Z,41.35
2018-06-04T12:01:10.743Z,41.21
2018-06-04T12:02:11.225Z,41.61
2018-06-04T12:03:11.697Z,41.88
2018-06-04T12:04:12.176Z,41.88
2018-06-04T12:05:12.859Z,41.68
2018-06-04T12:06:13.129Z,41.35
2018-06-04T12:07:13.607Z,40.95
2018-06-04T12:08:14.084Z,40.91
2018-06-04T12:09:14.562Z,40.88
2018-06-04T12:10:15.043Z,41.08
2018-06-04T12:11:15.569Z,41.49
2018-06-04T12:12:15.995Z,41.55
2018-06-04T12:13:16.473Z,41.62
2018-06-04T12:14:16.953Z,41.72
2018-06-04T12:15:17.426Z,41.61
2018-06-04T12:16:17.928Z,41.55
2018-06-04T12:17:18.381Z,41.61
2018-06-04T12:18:18.860Z,41.81
2018-06-04T12:19:19.336Z,41.81
2018-06-04T12:20:19.816Z,41.88
2018-06-04T12:21:20.291Z,41.68
2018-06-04T12:22:20.768Z,42.48
2018-06-04T12:23:21.245Z,42.48
2018-06-04T12:24:21.724Z,42.44
2018-06-04T12:25:22.203Z,42.58
2018-06-04T12:26:22.681Z,42.41
2018-06-04T12:27:23.155Z,42.61
2018-06-04T12:28:23.638Z,42.61
2018-06-04T12:29:24.114Z,42.67
2018-06-04T12:30:24.589Z,42.74
2018-06-04T12:31:25.069Z,42.84
2018-06-04T12:32:25.541Z,42.77
2018-06-04T12:33:26.024Z,42.54
2018-06-04T12:34:26.498Z,42.74
2018-06-04T12:35:26.975Z,42.70
2018-06-04T12:36:27.655Z,42.74
2018-06-04T12:37:27.932Z,42.73
2018-06-04T12:38:28.408Z,42.80
2018-06-04T12:39:28.884Z,42.53
2018-06-04T12:40:29.360Z,42.80
2018-06-04T12:41:29.838Z,42.60
2018-06-04T12:42:30.317Z,42.66
2018-06-04T12:43:30.993Z,42.80
2018-06-04T12:44:31.270Z,42.76
2018-06-04T12:45:31.748Z,42.86
2018-06-04T12:46:32.480Z,43.26
2018-06-04T12:47:32.702Z,43.16
2018-06-04T12:48:33.179Z,43.25
2018-06-04T12:49:33.659Z,43.42
2018-06-04T12:50:34.134Z,43.35
2018-06-04T12:51:34.611Z,43.61
2018-06-04T12:52:35.088Z,43.38
2018-06-04T12:53:35.565Z,43.11
2018-06-04T12:54:36.245Z,43.18
2018-06-04T12:55:36.519Z,43.08
2018-06-04T12:56:37.047Z,43.17
2018-06-04T12:57:37.676Z,43.24
2018-06-04T12:58:37.953Z,43.17
2018-06-04T12:59:38.429Z,43.04
2018-06-04T13:00:38.903Z,43.47
2018-06-04T13:01:39.431Z,43.34
2018-06-04T13:02:39.859Z,43.17
2018-06-04T13:03:40.335Z,43.47